createdAt,value
2023-01-18T00:00:00.773Z,55.0
2023-01-18T00:01:02.003Z,54.8
2023-01-18T00:02:01.016Z,54.7
2023-01-18T00:03:00.971Z,54.6
2023-01-18T00:04:00.775Z,54.4
2023-01-18T00:05:00.870Z,54.4
2023-01-18T00:06:01.483Z,54.4
2023-01-18T00:07:00.743Z,54.6
2023-01-18T00:08:00.784Z,54.7
2023-01-18T00:09:00.789Z,54.8
2023-01-18T00:10:00.790Z,54.7
2023-01-18T00:11:02.602Z,54.8
2023-01-18T00:12:00.853Z,54.7
2023-01-18T00:13:01.067Z,54.7
2023-01-18T00:14:00.768Z,54.9
2023-01-18T00:15:00.771Z,54.9
2023-01-18T00:16:01.771Z,54.9
2023-01-18T00:17:00.778Z,54.8
2023-01-18T00:18:00.957Z,54.7
2023-01-18T00:19:00.835Z,54.7
2023-01-18T00:20:00.739Z,54.8
2023-01-18T00:21:01.659Z,54.8
2023-01-18T00:22:00.770Z,54.8
2023-01-18T00:23:00.910Z,54.7
2023-01-18T00:24:01.050Z,54.5
2023-01-18T00:25:00.777Z,54.3
2023-01-18T00:26:01.544Z,54.3
2023-01-18T00:27:00.759Z,54.0
2023-01-18T00:28:00.781Z,53.7
2023-01-18T00:29:00.741Z,53.6
2023-01-18T00:30:01.051Z,53.1
2023-01-18T00:31:00.964Z,53.0
2023-01-18T00:32:00.740Z,52.9
2023-01-18T00:33:01.247Z,52.4
2023-01-18T00:34:00.739Z,52.3
2023-01-18T00:35:00.919Z,52.2
2023-01-18T00:36:01.836Z,51.6
2023-01-18T00:37:00.755Z,51.3
2023-01-18T00:38:00.771Z,51.2
2023-01-18T00:39:00.764Z,51.4
2023-01-18T00:40:00.814Z,51.2
2023-01-18T00:41:00.772Z,51.5
2023-01-18T00:42:00.800Z,51.0
2023-01-18T00:43:00.911Z,51.2
2023-01-18T00:44:00.946Z,51.1
2023-01-18T00:45:00.958Z,51.1
2023-01-18T00:46:01.070Z,50.9
2023-01-18T00:47:00.767Z,50.6
2023-01-18T00:48:00.759Z,50.1
2023-01-18T00:49:00.773Z,50.0
2023-01-18T00:50:00.817Z,49.8
2023-01-18T00:51:00.778Z,50.1
2023-01-18T00:52:00.782Z,49.8
2023-01-18T00:53:00.975Z,49.8
2023-01-18T00:54:00.836Z,49.6
2023-01-18T00:55:01.307Z,49.6
2023-01-18T00:56:00.743Z,49.4
2023-01-18T00:57:00.872Z,49.4
2023-01-18T00:58:00.784Z,49.4
2023-01-18T00:59:00.752Z,49.6
2023-01-18T01:00:00.771Z,49.4
2023-01-18T01:01:00.877Z,49.4
2023-01-18T01:02:01.289Z,49.3
2023-01-18T01:03:01.299Z,49.3
2023-01-18T01:04:00.759Z,49.3
2023-01-18T01:05:00.739Z,49.4
2023-01-18T01:06:00.794Z,49.4
2023-01-18T01:07:00.773Z,49.6
2023-01-18T01:08:01.139Z,49.6
2023-01-18T01:09:00.748Z,49.8
2023-01-18T01:10:00.789Z,49.7
2023-01-18T01:11:05.829Z,49.7
2023-01-18T01:12:00.815Z,49.7
2023-01-18T01:13:00.785Z,49.9
2023-01-18T01:14:00.804Z,49.9
2023-01-18T01:15:00.744Z,49.9
2023-01-18T01:16:09.525Z,49.9
2023-01-18T01:17:00.737Z,49.9
2023-01-18T01:18:00.764Z,50.1
2023-01-18T01:19:00.928Z,49.9
2023-01-18T01:20:00.907Z,49.9
2023-01-18T01:21:02.778Z,49.9
2023-01-18T01:22:00.923Z,49.9
2023-01-18T01:23:10.644Z,49.9
2023-01-18T01:24:00.790Z,49.9
2023-01-18T01:25:00.826Z,49.9
2023-01-18T01:26:01.286Z,49.9
2023-01-18T01:27:00.771Z,49.8
2023-01-18T01:28:00.873Z,49.8
2023-01-18T01:29:00.804Z,49.9
2023-01-18T01:30:01.402Z,49.9
2023-01-18T01:31:01.661Z,49.8
2023-01-18T01:32:00.832Z,49.9
2023-01-18T01:33:00.783Z,49.9
2023-01-18T01:34:00.955Z,49.9
2023-01-18T01:35:00.782Z,49.9
2023-01-18T01:36:03.367Z,49.9
2023-01-18T01:37:01.274Z,49.7
2023-01-18T01:38:00.856Z,49.7
2023-01-18T01:39:00.892Z,49.7
2023-01-18T01:40:00.777Z,49.7
2023-01-18T01:41:04.175Z,49.8
2023-01-18T01:42:00.785Z,49.8
2023-01-18T01:43:00.861Z,49.8
2023-01-18T01:44:01.847Z,49.7
2023-01-18T01:45:00.778Z,49.8
2023-01-18T01:46:01.732Z,49.8
2023-01-18T01:47:08.537Z,49.9
2023-01-18T01:48:00.782Z,49.9
2023-01-18T01:49:03.096Z,49.9
2023-01-18T01:50:03.360Z,49.6
2023-01-18T01:51:01.003Z,49.5
2023-01-18T01:52:02.801Z,49.5
2023-01-18T01:53:01.595Z,49.5
2023-01-18T01:54:02.083Z,49.4
2023-01-18T01:55:01.784Z,49.4
2023-01-18T01:56:00.952Z,49.4
2023-01-18T01:57:03.644Z,49.5
2023-01-18T01:58:00.745Z,49.6
2023-01-18T01:59:02.024Z,49.5
2023-01-18T02:00:01.810Z,49.3
2023-01-18T02:01:01.137Z,49.2
2023-01-18T02:02:01.054Z,49.5
2023-01-18T02:03:03.193Z,49.5
2023-01-18T02:04:01.819Z,49.4
2023-01-18T02:05:02.492Z,49.4
2023-01-18T02:06:08.997Z,49.4
2023-01-18T02:07:00.793Z,49.1
2023-01-18T02:08:02.285Z,49.1
2023-01-18T02:09:02.349Z,49.1
2023-01-18T02:10:01.987Z,49.1
2023-01-18T02:11:00.808Z,49.1
2023-01-18T02:12:00.773Z,48.8
2023-01-18T02:13:00.898Z,48.6
2023-01-18T02:14:03.505Z,48.6
2023-01-18T02:15:01.939Z,48.4
2023-01-18T02:16:00.762Z,48.7
2023-01-18T02:17:01.928Z,48.6
2023-01-18T02:18:10.749Z,48.4
2023-01-18T02:19:04.069Z,48.5
2023-01-18T02:20:10.786Z,48.5
2023-01-18T02:21:08.126Z,48.4
2023-01-18T02:22:00.765Z,48.4
2023-01-18T02:23:10.684Z,48.4
2023-01-18T02:24:10.683Z,48.6
2023-01-18T02:25:01.785Z,48.7
2023-01-18T02:26:08.152Z,48.8
2023-01-18T02:27:03.498Z,48.8
2023-01-18T02:28:00.740Z,48.9
2023-01-18T02:29:10.652Z,48.9
2023-01-18T02:30:10.638Z,48.8
2023-01-18T02:31:01.833Z,48.6
2023-01-18T02:32:10.621Z,48.4
2023-01-18T02:33:09.494Z,48.3
2023-01-18T02:34:10.663Z,48.4
2023-01-18T02:35:02.057Z,48.1
2023-01-18T02:36:01.920Z,48.0
2023-01-18T02:37:01.759Z,47.8
2023-01-18T02:38:08.136Z,47.4
2023-01-18T02:39:05.391Z,47.5
2023-01-18T02:40:00.736Z,47.2
2023-01-18T02:41:00.759Z,47.5
2023-01-18T02:42:04.868Z,47.2
2023-01-18T02:43:02.839Z,47.0
2023-01-18T02:44:00.868Z,46.9
2023-01-18T02:45:01.889Z,46.9
2023-01-18T02:46:03.587Z,46.5
2023-01-18T02:47:02.120Z,46.7
2023-01-18T02:48:01.224Z,46.5
2023-01-18T02:49:10.652Z,46.4
2023-01-18T02:50:01.423Z,46.6
2023-01-18T02:51:00.871Z,46.7
2023-01-18T02:52:01.570Z,46.7
2023-01-18T02:53:00.792Z,46.6
2023-01-18T02:54:01.687Z,46.8
2023-01-18T02:55:00.943Z,47.1
2023-01-18T02:56:00.765Z,47.0
2023-01-18T02:57:04.240Z,47.1
2023-01-18T02:58:05.901Z,47.1
2023-01-18T02:59:05.202Z,47.1
2023-01-18T03:00:02.484Z,47.2
2023-01-18T03:01:04.793Z,47.1
2023-01-18T03:02:03.379Z,47.1
2023-01-18T03:03:01.502Z,47.2
2023-01-18T03:04:07.436Z,47.1
2023-01-18T03:05:01.505Z,47.3
2023-01-18T03:06:02.619Z,47.2
2023-01-18T03:07:04.024Z,47.2
2023-01-18T03:08:04.515Z,47.4
2023-01-18T03:09:01.233Z,47.2
2023-01-18T03:10:02.991Z,47.3
2023-01-18T03:11:03.537Z,47.3
2023-01-18T03:12:10.612Z,47.4
2023-01-18T03:13:06.907Z,47.2
2023-01-18T03:14:07.271Z,47.3
2023-01-18T03:15:06.790Z,47.3
2023-01-18T03:16:05.205Z,47.6
2023-01-18T03:17:05.600Z,47.5
2023-01-18T03:18:10.628Z,47.5
2023-01-18T03:19:06.975Z,47.5
2023-01-18T03:20:02.604Z,47.5
2023-01-18T03:21:02.087Z,47.6
2023-01-18T03:22:01.984Z,47.5
2023-01-18T03:23:04.661Z,47.3
2023-01-18T03:24:03.580Z,47.5
2023-01-18T03:25:01.709Z,47.3
2023-01-18T03:26:02.734Z,47.2
2023-01-18T03:27:01.095Z,47.2
2023-01-18T03:28:09.646Z,47.3
2023-01-18T03:29:02.400Z,47.2
2023-01-18T03:30:01.682Z,47.1
2023-01-18T03:31:04.135Z,47.2
2023-01-18T03:32:07.310Z,46.9
2023-01-18T03:33:00.950Z,46.8
2023-01-18T03:34:04.203Z,46.9
2023-01-18T03:35:04.576Z,47.0
2023-01-18T03:36:01.768Z,47.1
2023-01-18T03:37:03.260Z,46.9
2023-01-18T03:38:00.835Z,46.8
2023-01-18T03:39:04.224Z,46.9
2023-01-18T03:40:03.864Z,46.7
2023-01-18T03:41:01.209Z,46.8
2023-01-18T03:42:09.512Z,46.8
2023-01-18T03:43:00.782Z,46.6
2023-01-18T03:44:05.164Z,46.6
2023-01-18T03:45:07.723Z,46.7
2023-01-18T03:46:01.278Z,46.7
2023-01-18T03:47:01.748Z,46.8
2023-01-18T03:48:01.137Z,46.7
2023-01-18T03:49:00.846Z,46.7
2023-01-18T03:50:00.949Z,46.6
2023-01-18T03:51:10.635Z,46.1
2023-01-18T03:52:00.739Z,46.1
2023-01-18T03:53:03.716Z,46.2
2023-01-18T03:54:10.187Z,46.3
2023-01-18T03:55:03.047Z,46.3
2023-01-18T03:56:05.083Z,46.5
2023-01-18T03:57:06.819Z,46.5
2023-01-18T03:58:05.373Z,46.5
2023-01-18T03:59:02.950Z,46.4
2023-01-18T04:00:01.458Z,46.6
2023-01-18T04:01:01.476Z,46.7
2023-01-18T04:02:01.932Z,46.6
2023-01-18T04:03:01.462Z,46.6
2023-01-18T04:04:00.876Z,46.5
2023-01-18T04:05:00.801Z,46.5
2023-01-18T04:06:01.735Z,46.4
2023-01-18T04:07:00.788Z,46.5
2023-01-18T04:08:00.815Z,46.4
2023-01-18T04:09:01.008Z,46.3
2023-01-18T04:10:01.067Z,46.1
2023-01-18T04:11:00.766Z,46.0
2023-01-18T04:12:00.782Z,46.0
2023-01-18T04:13:01.507Z,46.0
2023-01-18T04:14:00.913Z,46.3
2023-01-18T04:15:01.349Z,46.1
2023-01-18T04:16:00.835Z,45.9
2023-01-18T04:17:00.774Z,46.1
2023-01-18T04:18:00.777Z,46.3
2023-01-18T04:19:00.791Z,46.3
2023-01-18T04:20:00.957Z,46.4
2023-01-18T04:21:00.794Z,46.5
2023-01-18T04:22:00.776Z,46.5
2023-01-18T04:23:01.252Z,46.4
2023-01-18T04:24:01.069Z,46.4
2023-01-18T04:25:00.816Z,46.4
2023-01-18T04:26:00.755Z,46.3
2023-01-18T04:27:00.999Z,46.0
2023-01-18T04:28:00.775Z,46.1
2023-01-18T04:29:00.994Z,46.2
2023-01-18T04:30:00.817Z,46.3
2023-01-18T04:31:00.788Z,46.2
2023-01-18T04:32:00.819Z,46.3
2023-01-18T04:33:01.246Z,46.2
2023-01-18T04:34:00.896Z,46.2
2023-01-18T04:35:00.977Z,45.0
2023-01-18T04:36:00.797Z,44.8
2023-01-18T04:37:00.777Z,44.3
2023-01-18T04:38:00.793Z,44.3
2023-01-18T04:39:00.773Z,44.5
2023-01-18T04:40:00.799Z,44.5
2023-01-18T04:41:01.474Z,44.6
2023-01-18T04:42:00.794Z,44.8
2023-01-18T04:43:01.172Z,44.6
2023-01-18T04:44:00.790Z,44.4
2023-01-18T04:45:00.927Z,44.4
2023-01-18T04:46:01.024Z,44.4
2023-01-18T04:47:00.778Z,44.4
2023-01-18T04:48:00.892Z,44.8
2023-01-18T04:49:00.792Z,44.5
2023-01-18T04:50:00.789Z,44.5
2023-01-18T04:51:00.783Z,44.7
2023-01-18T04:52:00.774Z,44.7
2023-01-18T04:53:01.205Z,44.6
2023-01-18T04:54:00.764Z,44.0
2023-01-18T04:55:00.755Z,43.8
2023-01-18T04:56:01.003Z,43.8
2023-01-18T04:57:01.010Z,44.0
2023-01-18T04:58:00.780Z,44.1
2023-01-18T04:59:00.826Z,44.1
2023-01-18T05:00:00.784Z,44.0
2023-01-18T05:01:01.916Z,44.0
2023-01-18T05:02:00.776Z,44.2
2023-01-18T05:03:01.251Z,44.1
2023-01-18T05:04:00.761Z,44.0
2023-01-18T05:05:00.774Z,43.9
2023-01-18T05:06:00.786Z,43.6
2023-01-18T05:07:00.797Z,43.4
2023-01-18T05:08:01.292Z,43.2
2023-01-18T05:09:00.763Z,43.4
2023-01-18T05:10:00.817Z,43.2
2023-01-18T05:11:01.737Z,43.2
2023-01-18T05:12:00.761Z,43.2
2023-01-18T05:13:01.307Z,42.9
2023-01-18T05:14:00.797Z,43.0
2023-01-18T05:15:00.811Z,42.8
2023-01-18T05:16:00.992Z,43.1
2023-01-18T05:17:00.779Z,43.2
2023-01-18T05:18:00.797Z,43.0
2023-01-18T05:19:01.046Z,43.2
2023-01-18T05:20:01.489Z,43.3
2023-01-18T05:21:00.749Z,43.2
2023-01-18T05:22:00.782Z,43.1
2023-01-18T05:23:01.125Z,43.3
2023-01-18T05:24:00.787Z,43.2
2023-01-18T05:25:00.817Z,43.2
2023-01-18T05:26:01.266Z,42.9
2023-01-18T05:27:00.895Z,43.0
2023-01-18T05:28:00.796Z,42.9
2023-01-18T05:29:00.794Z,42.9
2023-01-18T05:30:00.948Z,42.9
2023-01-18T05:31:00.790Z,43.1
2023-01-18T05:32:00.767Z,43.0
2023-01-18T05:33:01.284Z,42.9
2023-01-18T05:34:00.764Z,42.7
2023-01-18T05:35:01.339Z,42.8
2023-01-18T05:36:00.817Z,42.9
2023-01-18T05:37:00.813Z,43.0
2023-01-18T05:38:00.809Z,43.0
2023-01-18T05:39:00.786Z,43.3
2023-01-18T05:40:00.833Z,43.4
2023-01-18T05:41:00.912Z,43.4
2023-01-18T05:42:01.153Z,43.4
2023-01-18T05:43:01.213Z,43.6
2023-01-18T05:44:00.752Z,43.5
2023-01-18T05:45:00.781Z,43.6
2023-01-18T05:46:00.804Z,43.5
2023-01-18T05:47:00.810Z,43.6
2023-01-18T05:48:00.779Z,43.3
2023-01-18T05:49:00.779Z,43.5
2023-01-18T05:50:00.781Z,43.6
2023-01-18T05:51:05.074Z,43.6
2023-01-18T05:52:00.941Z,43.6
2023-01-18T05:53:01.257Z,43.6
2023-01-18T05:54:01.008Z,43.5
2023-01-18T05:55:00.840Z,43.6
2023-01-18T05:56:05.552Z,43.6
2023-01-18T05:57:00.779Z,43.6
2023-01-18T05:58:00.813Z,43.3
2023-01-18T05:59:00.840Z,43.5
2023-01-18T06:00:00.876Z,43.6
2023-01-18T06:01:00.932Z,43.6
2023-01-18T06:02:00.809Z,43.7
2023-01-18T06:03:01.431Z,43.8
2023-01-18T06:04:00.839Z,43.9
2023-01-18T06:05:00.755Z,43.7
2023-01-18T06:06:00.800Z,43.9
2023-01-18T06:07:00.783Z,43.8
2023-01-18T06:08:00.759Z,43.8
2023-01-18T06:09:00.904Z,43.9
2023-01-18T06:10:00.747Z,44.0
2023-01-18T06:11:01.160Z,43.8
2023-01-18T06:12:00.909Z,43.7
2023-01-18T06:13:01.142Z,43.7
2023-01-18T06:14:00.898Z,43.9
2023-01-18T06:15:00.786Z,44.1
2023-01-18T06:16:00.985Z,44.1
2023-01-18T06:17:00.783Z,44.2
2023-01-18T06:18:00.804Z,44.2
2023-01-18T06:19:00.807Z,44.4
2023-01-18T06:20:01.315Z,44.4
2023-01-18T06:21:01.751Z,44.4
2023-01-18T06:22:00.759Z,44.5
2023-01-18T06:23:01.170Z,44.6
2023-01-18T06:24:00.953Z,44.8
2023-01-18T06:25:00.929Z,44.6
2023-01-18T06:26:00.793Z,44.5
2023-01-18T06:27:00.776Z,44.4
2023-01-18T06:28:00.790Z,44.2
2023-01-18T06:29:00.804Z,44.2
2023-01-18T06:30:00.978Z,44.2
2023-01-18T06:31:00.755Z,44.2
2023-01-18T06:32:00.820Z,44.2
2023-01-18T06:33:01.143Z,44.3
2023-01-18T06:34:00.826Z,44.3
2023-01-18T06:35:00.757Z,44.6
2023-01-18T06:36:01.117Z,44.5
2023-01-18T06:37:00.741Z,44.7
2023-01-18T06:38:01.602Z,44.7
2023-01-18T06:39:00.777Z,44.6
2023-01-18T06:40:02.771Z,44.6
2023-01-18T06:41:00.771Z,45.0
2023-01-18T06:42:01.178Z,45.0
2023-01-18T06:43:01.378Z,45.0
2023-01-18T06:44:00.773Z,44.9
2023-01-18T06:45:00.790Z,44.9
2023-01-18T06:46:00.834Z,44.9
2023-01-18T06:47:00.889Z,44.9
2023-01-18T06:48:00.804Z,44.9
2023-01-18T06:49:00.762Z,44.8
2023-01-18T06:50:00.765Z,44.9
2023-01-18T06:51:00.804Z,44.9
2023-01-18T06:52:00.886Z,44.8
2023-01-18T06:53:01.122Z,44.7
2023-01-18T06:54:00.767Z,44.8
2023-01-18T06:55:00.799Z,44.8
2023-01-18T06:56:00.769Z,45.0
2023-01-18T06:57:00.763Z,45.0
2023-01-18T06:58:00.883Z,45.2
2023-01-18T06:59:00.868Z,45.0
2023-01-18T07:00:01.041Z,45.0
2023-01-18T07:01:01.411Z,44.9
2023-01-18T07:02:00.999Z,44.9
2023-01-18T07:03:01.147Z,44.8
2023-01-18T07:04:00.859Z,45.3
2023-01-18T07:05:01.400Z,45.5
2023-01-18T07:06:01.868Z,45.5
2023-01-18T07:07:00.827Z,45.7
2023-01-18T07:08:00.816Z,45.7
2023-01-18T07:09:01.322Z,46.0
2023-01-18T07:10:00.780Z,46.0
2023-01-18T07:11:05.260Z,46.0
2023-01-18T07:12:00.755Z,46.0
2023-01-18T07:13:01.183Z,46.1
2023-01-18T07:14:00.755Z,45.9
2023-01-18T07:15:09.856Z,46.1
2023-01-18T07:16:01.208Z,46.5
2023-01-18T07:17:00.823Z,46.4
2023-01-18T07:18:00.783Z,46.9
2023-01-18T07:19:00.877Z,46.9
2023-01-18T07:20:00.920Z,46.8
2023-01-18T07:21:01.967Z,46.9
2023-01-18T07:22:00.951Z,46.7
2023-01-18T07:23:01.160Z,46.6
2023-01-18T07:24:00.782Z,46.8
2023-01-18T07:25:00.751Z,47.2
2023-01-18T07:26:00.762Z,47.3
2023-01-18T07:27:00.783Z,47.2
2023-01-18T07:28:00.915Z,47.1
2023-01-18T07:29:00.766Z,47.1
2023-01-18T07:30:00.801Z,47.4
2023-01-18T07:31:01.512Z,47.5
2023-01-18T07:32:00.840Z,47.4
2023-01-18T07:33:01.242Z,47.3
2023-01-18T07:34:00.797Z,47.3
2023-01-18T07:35:00.765Z,47.0
2023-01-18T07:36:01.397Z,47.0
2023-01-18T07:37:00.805Z,46.9
2023-01-18T07:38:00.780Z,46.9
2023-01-18T07:39:00.853Z,47.0
2023-01-18T07:40:01.002Z,46.9
2023-01-18T07:41:01.677Z,46.8
2023-01-18T07:42:00.907Z,46.7
2023-01-18T07:43:01.102Z,46.7
2023-01-18T07:44:00.788Z,46.6
2023-01-18T07:45:00.805Z,46.5
2023-01-18T07:46:01.118Z,46.4
2023-01-18T07:47:00.775Z,46.4
2023-01-18T07:48:00.816Z,46.2
2023-01-18T07:49:00.949Z,46.1
2023-01-18T07:50:01.076Z,45.9
2023-01-18T07:51:02.044Z,45.6
2023-01-18T07:52:00.780Z,45.2
2023-01-18T07:53:01.648Z,45.0
2023-01-18T07:54:00.813Z,44.9
2023-01-18T07:55:00.777Z,44.5
2023-01-18T07:56:01.470Z,44.5
2023-01-18T07:57:00.750Z,44.3
2023-01-18T07:58:00.786Z,43.9
2023-01-18T07:59:00.758Z,44.0
2023-01-18T08:00:00.859Z,43.8
2023-01-18T08:01:02.192Z,43.3
2023-01-18T08:02:00.826Z,43.2
2023-01-18T08:03:01.348Z,43.2
2023-01-18T08:04:00.983Z,42.9
2023-01-18T08:05:00.781Z,42.8
2023-01-18T08:06:01.986Z,42.9
2023-01-18T08:07:00.775Z,42.8
2023-01-18T08:08:00.808Z,43.3
2023-01-18T08:09:00.767Z,43.5
2023-01-18T08:10:00.777Z,43.4
2023-01-18T08:11:01.475Z,43.6
2023-01-18T08:12:00.820Z,43.5
2023-01-18T08:13:01.026Z,43.3
2023-01-18T08:14:00.765Z,43.4
2023-01-18T08:15:01.082Z,43.4
2023-01-18T08:16:02.180Z,43.3
2023-01-18T08:17:00.785Z,43.4
2023-01-18T08:18:02.692Z,43.3
2023-01-18T08:19:00.765Z,43.2
2023-01-18T08:20:00.842Z,43.1
2023-01-18T08:21:00.929Z,43.1
2023-01-18T08:22:00.992Z,43.0
2023-01-18T08:23:01.071Z,43.0
2023-01-18T08:24:00.793Z,42.8
2023-01-18T08:25:00.989Z,43.0
2023-01-18T08:26:01.279Z,43.1
2023-01-18T08:27:00.771Z,43.2
2023-01-18T08:28:01.520Z,43.3
2023-01-18T08:29:00.945Z,43.4
2023-01-18T08:30:00.790Z,43.4
2023-01-18T08:31:10.103Z,43.5
2023-01-18T08:32:00.759Z,43.7
2023-01-18T08:33:01.902Z,43.8
2023-01-18T08:34:01.081Z,43.9
2023-01-18T08:35:00.794Z,44.0
2023-01-18T08:36:00.769Z,44.1
2023-01-18T08:37:01.101Z,44.1
2023-01-18T08:38:01.073Z,44.3
2023-01-18T08:39:00.918Z,44.5
2023-01-18T08:40:00.748Z,44.7
2023-01-18T08:41:01.805Z,44.7
2023-01-18T08:42:00.783Z,44.7
2023-01-18T08:43:02.110Z,44.7
2023-01-18T08:44:00.815Z,44.8
2023-01-18T08:45:00.799Z,44.8
2023-01-18T08:46:00.773Z,44.8
2023-01-18T08:47:00.768Z,44.8
2023-01-18T08:48:03.251Z,45.0
2023-01-18T08:49:00.801Z,45.1
2023-01-18T08:50:00.811Z,45.3
2023-01-18T08:51:01.475Z,45.4
2023-01-18T08:52:00.758Z,45.5
2023-01-18T08:53:01.079Z,45.6
2023-01-18T08:54:00.868Z,45.6
2023-01-18T08:55:04.631Z,45.7
2023-01-18T08:56:04.737Z,46.0
2023-01-18T08:57:01.272Z,46.0
2023-01-18T08:58:00.845Z,46.0
2023-01-18T08:59:01.013Z,46.0
2023-01-18T09:00:00.829Z,46.1
2023-01-18T09:01:04.949Z,46.3
2023-01-18T09:02:00.892Z,46.3
2023-01-18T09:03:01.210Z,46.3
2023-01-18T09:04:00.785Z,46.4
2023-01-18T09:05:00.909Z,46.4
2023-01-18T09:06:01.235Z,46.6
2023-01-18T09:07:00.808Z,46.6
2023-01-18T09:08:00.786Z,46.8
2023-01-18T09:09:00.793Z,47.0
2023-01-18T09:10:00.907Z,47.0
2023-01-18T09:11:02.752Z,46.9
2023-01-18T09:12:00.786Z,46.8
2023-01-18T09:13:01.103Z,47.0
2023-01-18T09:14:01.936Z,46.9
2023-01-18T09:15:00.910Z,47.1
2023-01-18T09:16:03.146Z,47.0
2023-01-18T09:17:00.784Z,47.0
2023-01-18T09:18:00.762Z,47.2
2023-01-18T09:19:00.849Z,47.3
2023-01-18T09:20:00.799Z,47.2
2023-01-18T09:21:10.710Z,47.1
2023-01-18T09:22:00.783Z,47.0
2023-01-18T09:23:04.392Z,46.7
2023-01-18T09:24:00.949Z,46.4
2023-01-18T09:25:00.803Z,46.1
2023-01-18T09:26:05.213Z,45.7
2023-01-18T09:27:00.826Z,45.5
2023-01-18T09:28:01.575Z,44.9
2023-01-18T09:29:00.770Z,44.4
2023-01-18T09:30:00.776Z,43.8
2023-01-18T09:31:01.709Z,43.4
2023-01-18T09:32:01.051Z,43.0
2023-01-18T09:33:01.274Z,42.5
2023-01-18T09:34:18.017Z,42.2
2023-01-18T09:35:00.820Z,41.5
2023-01-18T09:36:01.889Z,40.8
2023-01-18T09:37:00.972Z,40.5
2023-01-18T09:38:00.789Z,39.8
2023-01-18T09:39:00.784Z,39.7
2023-01-18T09:40:00.792Z,38.9
2023-01-18T09:41:00.846Z,38.6
2023-01-18T09:42:01.273Z,38.2
2023-01-18T09:43:01.729Z,38.0
2023-01-18T09:44:05.587Z,37.5
2023-01-18T09:45:01.351Z,37.1
2023-01-18T09:46:00.776Z,37.3
2023-01-18T09:47:03.472Z,36.7
2023-01-18T09:48:03.906Z,36.5
2023-01-18T09:49:02.880Z,36.4
2023-01-18T09:50:10.655Z,35.9
2023-01-18T09:51:03.958Z,35.8
2023-01-18T09:52:00.783Z,35.5
2023-01-18T09:53:01.281Z,35.4
2023-01-18T09:54:07.743Z,35.5
2023-01-18T09:55:04.093Z,35.5
2023-01-18T09:56:00.764Z,35.2
2023-01-18T09:57:00.736Z,34.7
2023-01-18T09:58:00.740Z,34.3
2023-01-18T09:59:10.663Z,34.3
2023-01-18T10:00:01.744Z,34.6
2023-01-18T10:01:03.989Z,35.1
2023-01-18T10:02:02.499Z,35.4
2023-01-18T10:03:05.342Z,34.9
2023-01-18T10:04:06.171Z,34.2
2023-01-18T10:05:04.139Z,33.8
2023-01-18T10:06:05.019Z,32.6
2023-01-18T10:07:04.316Z,32.2
2023-01-18T10:08:05.773Z,31.8
2023-01-18T10:09:00.774Z,31.8
2023-01-18T10:10:02.180Z,32.1
2023-01-18T10:11:09.539Z,32.2
2023-01-18T10:12:03.315Z,33.1
2023-01-18T10:13:10.650Z,32.1
2023-01-18T10:14:01.803Z,32.5
2023-01-18T10:15:10.778Z,32.5
2023-01-18T10:16:00.808Z,32.9
2023-01-18T10:17:03.770Z,33.2
2023-01-18T10:18:00.843Z,33.1
2023-01-18T10:19:01.084Z,33.3
2023-01-18T10:20:04.633Z,33.8
2023-01-18T10:21:03.892Z,33.3
2023-01-18T10:22:10.643Z,33.8
2023-01-18T10:23:02.649Z,32.8
2023-01-18T10:24:10.657Z,32.3
2023-01-18T10:25:04.294Z,32.2
2023-01-18T10:26:05.173Z,32.6
2023-01-18T10:27:09.445Z,31.7
2023-01-18T10:28:10.372Z,32.0
2023-01-18T10:29:05.362Z,31.8
2023-01-18T10:30:00.745Z,31.1
2023-01-18T10:31:08.825Z,31.5
2023-01-18T10:32:03.503Z,31.5
2023-01-18T10:33:02.599Z,30.9
2023-01-18T10:34:01.339Z,30.7
2023-01-18T10:35:06.947Z,30.1
2023-01-18T10:36:03.678Z,30.2
2023-01-18T10:37:10.621Z,30.2
2023-01-18T10:38:03.146Z,29.4
2023-01-18T10:39:02.587Z,29.2
2023-01-18T10:40:02.586Z,29.3
2023-01-18T10:41:01.719Z,29.1
2023-01-18T10:42:02.538Z,29.6
2023-01-18T10:43:01.251Z,28.1
2023-01-18T10:44:00.809Z,28.1
2023-01-18T10:45:00.799Z,27.0
2023-01-18T10:46:00.851Z,27.9
2023-01-18T10:47:01.083Z,27.6
2023-01-18T10:48:10.653Z,27.7
2023-01-18T10:49:00.780Z,27.2
2023-01-18T10:50:10.677Z,27.2
2023-01-18T10:51:02.396Z,27.0
2023-01-18T10:52:10.666Z,27.0
2023-01-18T10:53:10.651Z,27.4
2023-01-18T10:54:10.648Z,27.5
2023-01-18T10:55:02.204Z,27.2
2023-01-18T10:56:02.435Z,28.4
2023-01-18T10:57:02.173Z,28.5
2023-01-18T10:58:01.155Z,27.8
2023-01-18T10:59:01.552Z,28.5
2023-01-18T11:00:01.333Z,28.9
2023-01-18T11:01:00.979Z,28.0
2023-01-18T11:02:01.125Z,27.6
2023-01-18T11:03:03.619Z,27.6
2023-01-18T11:04:01.985Z,27.6
2023-01-18T11:05:06.217Z,28.3
2023-01-18T11:06:02.421Z,27.9
2023-01-18T11:07:02.457Z,28.5
2023-01-18T11:08:10.667Z,28.4
2023-01-18T11:09:00.792Z,28.3
2023-01-18T11:10:01.016Z,27.2
2023-01-18T11:11:05.165Z,27.4
2023-01-18T11:12:10.844Z,27.2
2023-01-18T11:13:01.069Z,27.3
2023-01-18T11:14:00.793Z,27.1
2023-01-18T11:15:10.644Z,27.9
2023-01-18T11:16:03.270Z,28.2
2023-01-18T11:17:02.849Z,28.0
2023-01-18T11:18:01.701Z,28.0
2023-01-18T11:19:03.471Z,28.1
2023-01-18T11:20:04.648Z,27.9
2023-01-18T11:21:01.209Z,27.9
2023-01-18T11:22:01.008Z,28.6
2023-01-18T11:23:02.729Z,28.7
2023-01-18T11:24:04.692Z,29.0
2023-01-18T11:25:00.834Z,29.1
2023-01-18T11:26:10.671Z,29.5
2023-01-18T11:27:02.598Z,29.5
2023-01-18T11:28:01.947Z,29.6
2023-01-18T11:29:01.709Z,30.0
2023-01-18T11:30:00.815Z,30.0
2023-01-18T11:31:10.652Z,30.0
2023-01-18T11:32:03.225Z,29.9
2023-01-18T11:33:01.183Z,29.8
2023-01-18T11:34:02.637Z,29.7
2023-01-18T11:35:06.991Z,29.3
2023-01-18T11:36:01.928Z,29.4
2023-01-18T11:37:01.402Z,28.7
2023-01-18T11:38:02.697Z,28.3
2023-01-18T11:39:10.675Z,27.7
2023-01-18T11:40:10.617Z,27.7
2023-01-18T11:41:02.855Z,27.3
2023-01-18T11:42:10.725Z,26.7
2023-01-18T11:43:10.616Z,26.0
2023-01-18T11:44:01.783Z,25.1
2023-01-18T11:45:04.225Z,25.0
2023-01-18T11:46:05.202Z,24.9
2023-01-18T11:47:01.538Z,25.1
2023-01-18T11:48:10.630Z,25.2
2023-01-18T11:49:06.292Z,24.8
2023-01-18T11:50:05.586Z,24.1
2023-01-18T11:51:04.748Z,24.0
2023-01-18T11:52:01.487Z,24.3
2023-01-18T11:53:08.526Z,23.5
2023-01-18T11:54:10.260Z,23.5
2023-01-18T11:55:04.391Z,23.9
2023-01-18T11:56:04.890Z,24.3
2023-01-18T11:57:01.220Z,24.1
2023-01-18T11:58:01.402Z,24.0
2023-01-18T11:59:02.104Z,24.1
2023-01-18T12:00:00.884Z,23.9
2023-01-18T12:01:08.323Z,23.9
2023-01-18T12:02:08.202Z,24.0
2023-01-18T12:03:10.740Z,24.4
2023-01-18T12:04:10.619Z,24.5
2023-01-18T12:05:01.766Z,24.8
2023-01-18T12:06:05.036Z,25.1
2023-01-18T12:07:00.875Z,25.0
2023-01-18T12:08:10.629Z,25.3
2023-01-18T12:09:10.690Z,25.5
2023-01-18T12:10:01.365Z,25.6
2023-01-18T12:11:10.655Z,25.7
2023-01-18T12:12:18.904Z,25.2
2023-01-18T12:13:08.974Z,25.4
2023-01-18T12:14:10.644Z,25.5
2023-01-18T12:15:10.647Z,25.5
2023-01-18T12:16:10.753Z,25.8
2023-01-18T12:17:00.758Z,25.9
2023-01-18T12:18:13.215Z,26.1
2023-01-18T12:19:00.751Z,26.3
2023-01-18T12:20:00.766Z,26.5
2023-01-18T12:21:00.777Z,26.5
2023-01-18T12:22:00.741Z,26.7
2023-01-18T12:23:00.767Z,26.8
2023-01-18T12:24:10.667Z,26.9
2023-01-18T12:25:08.205Z,27.0
2023-01-18T12:26:11.796Z,27.0
2023-01-18T12:27:01.788Z,27.2
2023-01-18T12:28:04.118Z,27.3
2023-01-18T12:29:01.842Z,27.3
2023-01-18T12:30:12.984Z,27.4
2023-01-18T12:31:08.202Z,27.7
2023-01-18T12:32:10.644Z,27.8
2023-01-18T12:33:00.997Z,27.9
2023-01-18T12:34:10.679Z,27.9
2023-01-18T12:35:23.237Z,27.9
2023-01-18T12:36:01.822Z,27.7
2023-01-18T12:37:00.765Z,27.9
2023-01-18T12:38:02.163Z,28.0
2023-01-18T12:39:07.244Z,27.9
2023-01-18T12:40:10.659Z,27.9
2023-01-18T12:41:10.625Z,27.8
2023-01-18T12:42:00.739Z,28.0
2023-01-18T12:43:10.650Z,27.9
2023-01-18T12:44:08.059Z,27.8
2023-01-18T12:45:10.646Z,28.0
2023-01-18T12:46:05.016Z,27.6
2023-01-18T12:47:00.785Z,27.8
2023-01-18T12:48:01.210Z,27.6
2023-01-18T12:49:04.245Z,27.5
2023-01-18T12:50:05.040Z,27.6
2023-01-18T12:51:07.644Z,27.6
2023-01-18T12:52:17.707Z,27.7
2023-01-18T12:53:04.944Z,27.6
2023-01-18T12:54:05.861Z,27.3
2023-01-18T12:55:02.798Z,27.2
2023-01-18T12:56:10.794Z,27.3
2023-01-18T12:57:01.086Z,27.2
2023-01-18T12:58:02.282Z,27.1
2023-01-18T12:59:03.944Z,27.3
2023-01-18T13:00:05.799Z,27.2
2023-01-18T13:01:02.652Z,27.0
2023-01-18T13:02:08.997Z,27.1
2023-01-18T13:03:03.494Z,27.1
2023-01-18T13:04:04.235Z,27.1
2023-01-18T13:05:01.790Z,26.7
2023-01-18T13:06:01.430Z,26.4
2023-01-18T13:07:03.292Z,26.1
2023-01-18T13:08:10.801Z,25.9
2023-01-18T13:09:03.774Z,26.0
2023-01-18T13:10:01.640Z,26.1
2023-01-18T13:11:04.537Z,25.4
2023-01-18T13:12:02.012Z,25.0
2023-01-18T13:13:02.809Z,24.9
2023-01-18T13:14:07.945Z,24.8
2023-01-18T13:15:06.726Z,24.8
2023-01-18T13:16:00.771Z,24.4
2023-01-18T13:17:08.111Z,24.0
2023-01-18T13:18:01.373Z,23.2